createdAt,value
2018-03-27T00:02:13.296Z,98095.77
2018-03-27T00:04:42.836Z,98090.69
2018-03-27T00:07:18.052Z,98096.78
2018-03-27T00:09:47.616Z,98089.13
2018-03-27T00:12:17.139Z,98090.04
2018-03-27T00:14:47.033Z,98085.34
2018-03-27T00:17:16.913Z,98097.92
2018-03-27T00:22:27.094Z,98089.38
2018-03-27T00:24:56.730Z,98091.87
2018-03-27T00:27:36.780Z,98098.58
2018-03-27T00:30:17.236Z,98098.17
2018-03-27T00:32:57.266Z,98094.63
2018-03-27T00:35:39.777Z,98097.05
2018-03-27T00:38:19.904Z,98091.66
2018-03-27T00:40:47.740Z,98092.63
2018-03-27T00:43:17.288Z,98098.20
2018-03-27T00:45:47.132Z,98107.12
2018-03-27T00:48:16.738Z,98104.61
2018-03-27T00:50:46.571Z,98100.38
2018-03-27T00:53:16.093Z,98102.69
2018-03-27T00:55:46.941Z,98103.09
2018-03-27T00:58:16.524Z,98104.39
2018-03-27T01:00:46.072Z,98104.92
2018-03-27T01:03:15.759Z,98099.63
2018-03-27T01:05:46.645Z,98099.67
2018-03-27T01:08:16.332Z,98103.03
2018-03-27T01:10:45.871Z,98101.23
2018-03-27T01:13:15.496Z,98096.23
2018-03-27T01:15:45.658Z,98105.38
2018-03-27T01:18:15.221Z,98097.48
2018-03-27T01:20:44.781Z,98099.50
2018-03-27T01:23:14.323Z,98090.34
2018-03-27T01:25:43.863Z,98097.26
2018-03-27T01:28:13.445Z,98090.59
2018-03-27T01:30:44.253Z,98089.02
2018-03-27T01:33:13.900Z,98090.34
2018-03-27T01:35:43.586Z,98092.77
2018-03-27T01:38:13.130Z,98087.42
2018-03-27T01:40:44.129Z,98094.81
2018-03-27T01:43:13.805Z,98087.64
2018-03-27T01:45:45.418Z,98089.56
2018-03-27T01:48:15.104Z,98085.67
2018-03-27T01:50:44.616Z,98083.19
2018-03-27T01:53:14.128Z,98083.98
2018-03-27T01:55:49.924Z,98086.53
2018-03-27T01:58:19.479Z,98084.59
2018-03-27T02:00:49.081Z,98081.16
2018-03-27T02:03:18.615Z,98085.97
2018-03-27T02:05:48.507Z,98087.44
2018-03-27T02:08:18.138Z,98086.67
2018-03-27T02:10:46.546Z,98095.81
2018-03-27T02:13:20.916Z,98085.98
2018-03-27T02:15:55.506Z,98085.11
2018-03-27T02:21:09.072Z,98081.88
2018-03-27T02:23:38.834Z,98084.67
2018-03-27T02:26:08.413Z,98083.16
2018-03-27T02:28:37.902Z,98082.45
2018-03-27T02:31:07.470Z,98086.36
2018-03-27T02:33:38.459Z,98090.02
2018-03-27T02:36:07.968Z,98092.08
2018-03-27T02:38:37.491Z,98096.53
2018-03-27T02:41:07.054Z,98092.91
2018-03-27T02:43:36.636Z,98092.06
2018-03-27T02:46:06.288Z,98094.02
2018-03-27T02:48:37.270Z,98091.16
2018-03-27T02:51:06.952Z,98093.94
2018-03-27T02:53:36.542Z,98094.08
2018-03-27T02:56:06.107Z,98097.80
2018-03-27T02:58:37.032Z,98095.22
2018-03-27T03:01:06.715Z,98102.98
2018-03-27T03:03:36.362Z,98099.23
2018-03-27T03:06:05.866Z,98094.84
2018-03-27T03:08:36.801Z,98092.51
2018-03-27T03:11:06.417Z,98093.27
2018-03-27T03:13:35.978Z,98092.42
2018-03-27T03:16:05.502Z,98097.61
2018-03-27T03:18:35.113Z,98092.44
2018-03-27T03:21:04.780Z,98097.79
2018-03-27T03:23:35.689Z,98090.37
2018-03-27T03:26:05.356Z,98090.59
2018-03-27T03:28:34.999Z,98094.89
2018-03-27T03:31:04.548Z,98090.01
2018-03-27T03:33:34.120Z,98094.55
2018-03-27T03:36:03.719Z,98095.43
2018-03-27T03:38:34.742Z,98092.69
2018-03-27T03:41:04.257Z,98086.02
2018-03-27T03:43:33.830Z,98093.30
2018-03-27T03:46:03.418Z,98093.19
2018-03-27T03:48:33.388Z,98096.05
2018-03-27T03:51:02.968Z,98099.95
2018-03-27T03:53:32.569Z,98086.67
2018-03-27T03:56:02.147Z,98090.84
2018-03-27T03:58:31.656Z,98086.08
2018-03-27T04:01:01.270Z,98093.73
2018-03-27T04:03:31.223Z,98086.36
2018-03-27T04:06:00.838Z,98086.38
2018-03-27T04:08:30.442Z,98092.08
2018-03-27T04:11:00.034Z,98092.36
2018-03-27T04:13:30.004Z,98093.94
2018-03-27T04:15:59.554Z,98096.27
2018-03-27T04:18:29.206Z,98085.62
2018-03-27T04:20:58.855Z,98082.30
2018-03-27T04:23:28.796Z,98083.88
2018-03-27T04:25:58.400Z,98087.57
2018-03-27T04:28:28.041Z,98081.45
2018-03-27T04:30:57.624Z,98077.22
2018-03-27T04:33:29.494Z,98078.84
2018-03-27T04:35:59.065Z,98068.72
2018-03-27T04:38:28.980Z,98075.58
2018-03-27T04:40:58.706Z,98079.83
2018-03-27T04:43:28.525Z,98082.08
2018-03-27T04:45:58.041Z,98084.13
2018-03-27T04:48:27.900Z,98076.92
2018-03-27T04:50:57.760Z,98083.68
2018-03-27T04:53:27.311Z,98079.03
2018-03-27T04:55:56.853Z,98077.08
2018-03-27T04:58:26.354Z,98078.44
2018-03-27T05:00:55.889Z,98073.56
2018-03-27T05:03:25.537Z,98078.38
2018-03-27T05:05:56.441Z,98077.00
2018-03-27T05:08:26.273Z,98073.05
2018-03-27T05:14:01.280Z,98080.66
2018-03-27T05:16:30.962Z,98082.95
2018-03-27T05:19:00.790Z,98076.02
2018-03-27T05:21:30.431Z,98081.60
2018-03-27T05:24:00.029Z,98081.49
2018-03-27T05:26:29.807Z,98086.09
2018-03-27T05:28:59.525Z,98081.70
2018-03-27T05:31:29.080Z,98085.55
2018-03-27T05:33:58.643Z,98088.69
2018-03-27T05:36:28.326Z,98087.89
2018-03-27T05:38:59.361Z,98095.62
2018-03-27T05:41:28.885Z,98090.91
2018-03-27T05:43:58.424Z,98088.21
2018-03-27T05:46:28.528Z,98089.38
2018-03-27T05:48:58.133Z,98095.05
2018-03-27T05:51:28.661Z,98094.64
2018-03-27T05:53:58.489Z,98088.95
2018-03-27T05:56:28.045Z,98089.63
2018-03-27T05:58:58.169Z,98087.36
2018-03-27T06:01:28.022Z,98097.30
2018-03-27T06:03:57.618Z,98097.60
2018-03-27T06:06:27.321Z,98092.77
2018-03-27T06:08:58.289Z,98097.69
2018-03-27T06:11:28.061Z,98096.58
2018-03-27T06:13:57.640Z,98097.09
2018-03-27T06:16:27.420Z,98105.69
2018-03-27T06:18:57.469Z,98100.18
2018-03-27T06:21:27.435Z,98104.14
2018-03-27T06:23:58.034Z,98103.94
2018-03-27T06:26:27.630Z,98103.72
2018-03-27T06:28:57.208Z,98106.59
2018-03-27T06:31:27.066Z,98105.45
2018-03-27T06:34:02.009Z,98103.61
2018-03-27T06:36:31.648Z,98094.69
2018-03-27T06:39:01.209Z,98096.78
2018-03-27T06:41:31.044Z,98093.30
2018-03-27T06:44:01.165Z,98091.03
2018-03-27T06:46:30.806Z,98089.98
2018-03-27T06:49:00.430Z,98089.10
2018-03-27T06:51:31.402Z,98088.03
2018-03-27T06:54:02.869Z,98083.44
2018-03-27T06:56:32.635Z,98085.52
2018-03-27T06:59:02.358Z,98075.85
2018-03-27T07:01:31.834Z,98074.92
2018-03-27T07:04:01.721Z,98076.23
2018-03-27T07:06:31.271Z,98070.01
2018-03-27T07:09:00.956Z,98072.33
2018-03-27T07:11:30.749Z,98071.69
2018-03-27T07:14:00.265Z,98073.91
2018-03-27T07:16:29.996Z,98076.67
2018-03-27T07:19:01.377Z,98073.75
2018-03-27T07:21:30.917Z,98078.88
2018-03-27T07:24:00.504Z,98086.14
2018-03-27T07:26:31.544Z,98086.52
2018-03-27T07:29:01.123Z,98085.94
2018-03-27T07:31:30.654Z,98086.47
2018-03-27T07:34:01.549Z,98085.43
2018-03-27T07:36:31.210Z,98089.30
2018-03-27T07:39:00.841Z,98076.77
2018-03-27T07:41:30.685Z,98078.59
2018-03-27T07:44:00.244Z,98083.84
2018-03-27T07:46:29.789Z,98081.23
2018-03-27T07:49:01.941Z,98092.22
2018-03-27T07:51:31.482Z,98083.84
2018-03-27T07:54:01.265Z,98086.62
2018-03-27T07:56:31.418Z,98093.71
2018-03-27T07:59:01.900Z,98093.84
2018-03-27T08:01:31.528Z,98093.72
2018-03-27T08:04:01.469Z,98095.23
2018-03-27T08:06:31.283Z,98086.22
2018-03-27T08:09:00.907Z,98093.44
2018-03-27T08:11:30.790Z,98088.67
2018-03-27T08:14:00.867Z,98089.23
2018-03-27T08:16:30.505Z,98089.78
2018-03-27T08:19:00.578Z,98091.61
2018-03-27T08:21:30.150Z,98100.31
2018-03-27T08:23:59.870Z,98091.60
2018-03-27T08:26:30.036Z,98086.97
2018-03-27T08:28:59.703Z,98091.88
2018-03-27T08:31:29.290Z,98087.27
2018-03-27T08:33:59.158Z,98083.36
2018-03-27T08:36:29.018Z,98088.13
2018-03-27T08:38:58.683Z,98082.20
2018-03-27T08:41:28.496Z,98079.39
2018-03-27T08:43:59.607Z,98086.63
2018-03-27T08:46:29.462Z,98088.45
2018-03-27T08:48:59.772Z,98081.72
2018-03-27T08:51:29.414Z,98074.27
2018-03-27T08:53:58.983Z,98070.19
2018-03-27T08:56:31.099Z,98070.56
2018-03-27T08:59:00.753Z,98071.43
2018-03-27T09:01:30.386Z,98072.05
2018-03-27T09:04:01.250Z,98076.81
2018-03-27T09:06:30.984Z,98064.89
2018-03-27T09:09:00.709Z,98070.79
2018-03-27T09:11:30.567Z,98072.13
2018-03-27T09:14:00.095Z,98071.55
2018-03-27T09:16:29.935Z,98069.56
2018-03-27T09:18:59.871Z,98067.22
2018-03-27T09:21:29.801Z,98073.55
2018-03-27T09:23:59.403Z,98067.65
2018-03-27T09:26:29.446Z,98062.02
2018-03-27T09:28:59.264Z,98059.23
2018-03-27T09:31:28.839Z,98057.28
2018-03-27T09:33:59.691Z,98054.09
2018-03-27T09:36:29.313Z,98047.64
2018-03-27T09:38:59.557Z,98044.08
2018-03-27T09:41:29.681Z,98043.04
2018-03-27T09:43:59.503Z,98036.45
2018-03-27T09:46:29.176Z,98034.44
2018-03-27T09:49:02.849Z,98033.39
2018-03-27T09:51:32.488Z,98027.27
2018-03-27T09:54:02.079Z,98030.84
2018-03-27T09:56:31.717Z,98029.42
2018-03-27T09:59:01.491Z,98027.61
2018-03-27T10:01:31.226Z,98025.21
2018-03-27T10:04:04.398Z,98024.58
2018-03-27T10:06:33.986Z,98027.20
2018-03-27T10:09:03.538Z,98019.59
2018-03-27T10:11:33.651Z,98012.17
2018-03-27T10:14:03.174Z,98015.05
2018-03-27T10:16:32.849Z,98016.41
2018-03-27T10:19:04.834Z,98014.63
2018-03-27T10:21:34.435Z,98010.58
2018-03-27T10:24:04.006Z,98007.48
2018-03-27T10:26:33.981Z,98002.45
2018-03-27T10:29:03.693Z,97990.92
2018-03-27T10:31:33.472Z,97991.56
2018-03-27T10:34:03.624Z,97991.06
2018-03-27T10:36:34.260Z,97986.78
2018-03-27T10:39:04.112Z,97979.69
2018-03-27T10:41:33.911Z,97978.36
2018-03-27T10:44:03.479Z,97972.70
2018-03-27T10:46:33.151Z,97969.62
2018-03-27T10:49:05.084Z,97975.08
2018-03-27T10:51:34.767Z,97964.78
2018-03-27T10:54:04.559Z,97964.77
2018-03-27T10:56:34.690Z,97968.31
2018-03-27T10:59:05.160Z,97959.09
2018-03-27T11:01:34.691Z,97954.30
2018-03-27T11:08:36.332Z,97956.09
2018-03-27T11:11:07.471Z,97953.13
2018-03-27T11:13:38.295Z,97951.44
2018-03-27T11:16:10.264Z,97948.16
2018-03-27T11:18:41.028Z,97939.17
2018-03-27T11:21:11.679Z,97942.88
2018-03-27T11:23:42.635Z,97941.80
2018-03-27T11:26:13.304Z,97932.72
2018-03-27T11:28:44.225Z,97930.38
2018-03-27T11:31:16.322Z,97934.23
2018-03-27T11:33:47.134Z,97921.02
2018-03-27T11:36:18.204Z,97932.03
2018-03-27T11:38:52.904Z,97929.22
2018-03-27T11:41:24.388Z,97924.99
2018-03-27T11:43:55.211Z,97912.11
2018-03-27T11:46:27.555Z,97906.34
2018-03-27T11:48:58.384Z,97898.95
2018-03-27T11:51:29.274Z,97902.38
2018-03-27T11:54:02.513Z,97892.67
2018-03-27T11:56:33.359Z,97893.14
2018-03-27T11:59:04.158Z,97884.45
2018-03-27T12:01:35.412Z,97884.66
2018-03-27T12:04:06.259Z,97873.92
2018-03-27T12:06:37.025Z,97865.98
2018-03-27T12:09:08.273Z,97857.49
2018-03-27T12:11:38.999Z,97856.58
2018-03-27T12:14:09.745Z,97848.25
2018-03-27T12:16:40.412Z,97846.81
2018-03-27T12:19:10.991Z,97840.58
2018-03-27T12:21:42.090Z,97834.53
2018-03-27T12:24:12.712Z,97825.61
2018-03-27T12:26:43.522Z,97823.50
2018-03-27T12:29:14.520Z,97821.20
2018-03-27T12:31:45.405Z,97808.55
2018-03-27T12:34:16.063Z,97798.02
2018-03-27T12:36:47.128Z,97808.47
2018-03-27T12:39:18.395Z,97799.31
2018-03-27T12:41:50.428Z,97795.60
2018-03-27T12:44:21.016Z,97791.00
2018-03-27T12:46:51.611Z,97792.26
2018-03-27T12:49:22.637Z,97781.97
2018-03-27T12:51:53.273Z,97775.30
2018-03-27T12:54:24.037Z,97779.41
2018-03-27T12:56:57.195Z,97766.64
2018-03-27T12:59:28.111Z,97770.51
2018-03-27T13:01:58.709Z,97764.55
2018-03-27T13:04:29.848Z,97762.59
2018-03-27T13:07:00.683Z,97760.58
2018-03-27T13:09:31.535Z,97759.00
2018-03-27T13:12:02.666Z,97744.53
2018-03-27T13:14:35.400Z,97733.64
2018-03-27T13:17:06.237Z,97730.80
2018-03-27T13:19:37.446Z,97737.77
2018-03-27T13:22:08.215Z,97725.11
2018-03-27T13:24:38.993Z,97725.02
2018-03-27T13:27:09.678Z,97713.55
2018-03-27T13:29:41.120Z,97713.84
2018-03-27T13:32:12.163Z,97715.67
2018-03-27T13:34:42.963Z,97713.63
2018-03-27T13:37:13.750Z,97714.00
2018-03-27T13:39:44.874Z,97702.43
2018-03-27T13:42:15.467Z,97700.74
2018-03-27T13:44:46.006Z,97692.42
2018-03-27T13:47:17.115Z,97691.58
2018-03-27T13:49:48.561Z,97686.21
2018-03-27T13:52:19.359Z,97681.59
2018-03-27T13:54:50.092Z,97676.92
2018-03-27T13:57:20.843Z,97676.28
2018-03-27T13:59:52.338Z,97675.51
2018-03-27T14:02:23.228Z,97667.23
2018-03-27T14:04:53.920Z,97674.30
2018-03-27T14:07:25.064Z,97671.28
2018-03-27T14:09:55.772Z,97667.87
2018-03-27T14:12:28.742Z,97665.27
2018-03-27T14:14:59.442Z,97655.09
2018-03-27T14:17:30.235Z,97650.55
2018-03-27T14:20:01.924Z,97650.28
2018-03-27T14:22:33.039Z,97643.56
2018-03-27T14:25:04.026Z,97637.94
2018-03-27T14:27:35.634Z,97648.05
2018-03-27T14:32:27.834Z,97642.17
2018-03-27T14:34:56.547Z,97642.67
2018-03-27T14:37:25.261Z,97640.56
2018-03-27T14:39:54.439Z,97648.14
2018-03-27T14:42:23.266Z,97637.22
2018-03-27T14:44:53.162Z,97636.50
2018-03-27T14:47:22.243Z,97634.27
2018-03-27T14:49:54.280Z,97623.66
2018-03-27T14:52:24.299Z,97631.30
2018-03-27T14:54:53.984Z,97625.44
2018-03-27T14:57:22.621Z,97618.72
2018-03-27T14:59:51.489Z,97613.69
2018-03-27T15:02:21.187Z,97612.84
2018-03-27T15:04:49.892Z,97616.68
2018-03-27T15:07:21.102Z,97604.38
2018-03-27T15:09:50.361Z,97593.41
2018-03-27T15:12:18.909Z,97601.28
2018-03-27T15:14:47.562Z,97598.44
2018-03-27T15:17:16.928Z,97587.67
2018-03-27T15:19:45.594Z,97584.44
2018-03-27T15:22:14.692Z,97580.44
2018-03-27T15:24:44.742Z,97579.97
2018-03-27T15:27:13.285Z,97580.77
2018-03-27T15:29:42.204Z,97572.29
2018-03-27T15:32:11.993Z,97568.88
2018-03-27T15:34:40.649Z,97558.67
2018-03-27T15:37:10.804Z,97559.41
2018-03-27T15:39:39.746Z,97559.95
2018-03-27T15:42:08.290Z,97560.08
2018-03-27T15:44:37.134Z,97548.89
2018-03-27T15:47:08.275Z,97550.20
2018-03-27T15:49:37.642Z,97544.53
2018-03-27T15:52:06.706Z,97543.52
2018-03-27T15:54:36.902Z,97542.80
2018-03-27T15:57:05.880Z,97540.66
2018-03-27T15:59:34.631Z,97535.35
2018-03-27T16:02:03.280Z,97535.55
2018-03-27T16:04:32.077Z,97535.45
2018-03-27T16:07:01.151Z,97531.45
2018-03-27T16:09:30.119Z,97534.51
2018-03-27T16:11:59.182Z,97528.05
2018-03-27T16:14:28.358Z,97528.84
2018-03-27T16:16:57.794Z,97521.39
2018-03-27T16:19:26.591Z,97526.75
2018-03-27T16:21:55.200Z,97516.97
2018-03-27T16:24:24.008Z,97518.52
2018-03-27T16:26:55.707Z,97503.58
2018-03-27T16:29:24.792Z,97504.20
2018-03-27T16:31:53.868Z,97509.03
2018-03-27T16:34:22.602Z,97502.89
2018-03-27T16:36:52.674Z,97502.11
2018-03-27T16:39:21.394Z,97501.50
2018-03-27T16:41:49.982Z,97497.20
2018-03-27T16:44:18.755Z,97501.41
2018-03-27T16:46:47.320Z,97494.71
2018-03-27T16:49:17.567Z,97496.20
2018-03-27T16:51:46.469Z,97499.11
2018-03-27T16:54:15.254Z,97498.93
2018-03-27T16:56:45.306Z,97511.23
2018-03-27T16:59:14.254Z,97507.81
2018-03-27T17:01:43.126Z,97508.00
2018-03-27T17:04:11.784Z,97510.25
2018-03-27T17:06:40.423Z,97503.69
2018-03-27T17:09:09.006Z,97500.83
2018-03-27T17:11:37.988Z,97498.02
2018-03-27T17:14:07.473Z,97499.61
2018-03-27T17:16:36.130Z,97502.59
2018-03-27T17:19:04.715Z,97498.45
2018-03-27T17:21:33.423Z,97498.77
2018-03-27T17:24:02.078Z,97497.69
2018-03-27T17:26:30.622Z,97494.64
2018-03-27T17:29:00.073Z,97502.25
2018-03-27T17:31:28.862Z,97499.65
2018-03-27T17:33:59.139Z,97507.42
2018-03-27T17:36:27.951Z,97504.97
2018-03-27T17:38:56.663Z,97512.48
2018-03-27T17:41:25.282Z,97512.27
2018-03-27T17:43:53.940Z,97513.41
2018-03-27T17:46:22.575Z,97506.25
2018-03-27T17:48:51.592Z,97507.06
2018-03-27T17:51:20.182Z,97506.87
2018-03-27T17:53:48.863Z,97508.89
2018-03-27T17:56:17.902Z,97513.53
2018-03-27T17:58:47.780Z,97508.40
2018-03-27T18:01:16.439Z,97510.17
2018-03-27T18:03:45.384Z,97508.81
2018-03-27T18:06:14.093Z,97516.66
2018-03-27T18:08:42.857Z,97513.98
2018-03-27T18:11:11.586Z,97514.67
2018-03-27T18:13:40.725Z,97515.80
2018-03-27T18:16:09.602Z,97523.63
2018-03-27T18:18:38.338Z,97533.47
2018-03-27T18:21:06.964Z,97531.05
2018-03-27T18:23:37.880Z,97531.41
2018-03-27T18:26:06.572Z,97535.40
2018-03-27T18:28:35.182Z,97531.76
2018-03-27T18:31:04.578Z,97531.27
2018-03-27T18:33:33.594Z,97529.02
2018-03-27T18:36:02.346Z,97520.84
2018-03-27T18:38:30.966Z,97514.71
2018-03-27T18:40:59.925Z,97519.18
2018-03-27T18:43:28.470Z,97519.70
2018-03-27T18:45:57.242Z,97516.17
2018-03-27T18:48:25.941Z,97511.43
2018-03-27T18:50:54.875Z,97514.46
2018-03-27T18:53:23.635Z,97505.34
2018-03-27T18:55:52.915Z,97504.46
2018-03-27T18:58:22.268Z,97500.13
2018-03-27T19:00:51.478Z,97500.20
2018-03-27T19:03:20.399Z,97502.31
2018-03-27T19:05:49.254Z,97495.08
2018-03-27T19:08:17.948Z,97485.03
2018-03-27T19:10:48.883Z,97485.27
2018-03-27T19:13:17.467Z,97487.33
2018-03-27T19:15:46.009Z,97486.20
2018-03-27T19:18:14.741Z,97490.39
2018-03-27T19:20:44.047Z,97489.56
2018-03-27T19:23:14.312Z,97486.91
2018-03-27T19:25:43.346Z,97494.23
2018-03-27T19:28:11.976Z,97489.52
2018-03-27T19:30:40.504Z,97498.33
2018-03-27T19:33:09.305Z,97498.28
2018-03-27T19:35:38.257Z,97488.66
2018-03-27T19:38:08.112Z,97488.54
2018-03-27T19:40:37.263Z,97494.29
2018-03-27T19:43:05.982Z,97490.92
2018-03-27T19:45:35.571Z,97480.23
2018-03-27T19:48:05.010Z,97483.34
2018-03-27T19:50:34.426Z,97487.33
2018-03-27T19:53:04.241Z,97477.91
2018-03-27T19:55:33.214Z,97482.46
2018-03-27T19:58:02.676Z,97473.22
2018-03-27T20:00:32.106Z,97476.66
2018-03-27T20:03:02.160Z,97473.80
2018-03-27T20:05:30.752Z,97468.80
2018-03-27T20:07:59.709Z,97476.78
2018-03-27T20:10:28.325Z,97467.38
2018-03-27T20:12:57.045Z,97473.11
2018-03-27T20:15:26.351Z,97461.46
2018-03-27T20:17:55.325Z,97457.32
2018-03-27T20:20:24.034Z,97449.81
2018-03-27T20:22:53.895Z,97445.74
2018-03-27T20:25:22.730Z,97447.40
2018-03-27T20:27:51.399Z,97446.28
2018-03-27T20:30:20.204Z,97449.51
2018-03-27T20:32:49.313Z,97441.15
2018-03-27T20:35:18.032Z,97445.90
2018-03-27T20:37:46.792Z,97447.55
2018-03-27T20:40:15.476Z,97444.36
2018-03-27T20:42:44.495Z,97439.20
2018-03-27T20:45:13.208Z,97438.14
2018-03-27T20:47:42.223Z,97438.45
2018-03-27T20:50:10.841Z,97427.67
2018-03-27T20:52:39.727Z,97431.33
2018-03-27T20:55:09.689Z,97424.66
2018-03-27T20:57:38.209Z,97424.77
2018-03-27T21:00:07.796Z,97416.00
2018-03-27T21:02:36.494Z,97412.71
2018-03-27T21:05:06.327Z,97412.99
2018-03-27T21:07:35.318Z,97419.63
2018-03-27T21:10:04.118Z,97415.82
2018-03-27T21:12:33.331Z,97424.27
2018-03-27T21:15:01.924Z,97417.21
2018-03-27T21:17:30.533Z,97416.29
2018-03-27T21:19:59.168Z,97418.91
2018-03-27T21:22:29.034Z,97410.46
2018-03-27T21:24:58.010Z,97409.86
2018-03-27T21:27:26.626Z,97400.78
2018-03-27T21:29:55.431Z,97405.70
2018-03-27T21:32:24.951Z,97397.27
2018-03-27T21:34:54.635Z,97398.73
2018-03-27T21:37:23.570Z,97398.61
2018-03-27T21:39:52.657Z,97397.03
2018-03-27T21:42:21.277Z,97392.64
2018-03-27T21:44:50.241Z,97393.27
2018-03-27T21:47:19.041Z,97389.67
2018-03-27T21:49:51.939Z,97392.13
2018-03-27T21:52:20.506Z,97379.95
2018-03-27T21:54:49.148Z,97377.08
2018-03-27T21:57:17.925Z,97381.01
2018-03-27T21:59:46.537Z,97384.53
2018-03-27T22:02:15.515Z,97386.09
2018-03-27T22:04:49.185Z,97380.86
2018-03-27T22:07:18.725Z,97379.18
2018-03-27T22:09:47.266Z,97367.84
2018-03-27T22:12:16.769Z,97363.04
2018-03-27T22:14:46.773Z,97357.31
2018-03-27T22:17:15.430Z,97355.98
2018-03-27T22:19:44.305Z,97356.54
2018-03-27T22:22:13.169Z,97357.69
2018-03-27T22:24:41.821Z,97355.38
2018-03-27T22:27:10.430Z,97355.36
2018-03-27T22:29:39.442Z,97348.81
2018-03-27T22:32:08.239Z,97347.81
2018-03-27T22:34:37.122Z,97341.80
2018-03-27T22:37:06.048Z,97343.53
2018-03-27T22:39:36.943Z,97349.69
2018-03-27T22:42:05.592Z,97346.52
2018-03-27T22:44:34.215Z,97347.32
2018-03-27T22:47:02.985Z,97342.16
2018-03-27T22:49:33.120Z,97334.88
2018-03-27T22:52:01.798Z,97337.17
2018-03-27T22:54:30.499Z,97330.70
2018-03-27T22:56:59.378Z,97333.84
2018-03-27T22:59:28.308Z,97325.58
2018-03-27T23:01:56.931Z,97335.42
2018-03-27T23:04:25.611Z,97328.03
2018-03-27T23:06:54.377Z,97325.73
2018-03-27T23:09:23.653Z,97326.07
2018-03-27T23:11:52.258Z,97331.39
2018-03-27T23:14:20.852Z,97330.82
2018-03-27T23:16:49.469Z,97325.84
2018-03-27T23:19:18.147Z,97316.63
2018-03-27T23:21:46.774Z,97322.36
2018-03-27T23:24:15.820Z,97319.72
2018-03-27T23:26:44.898Z,97317.61
2018-03-27T23:29:13.604Z,97319.53
2018-03-27T23:31:44.500Z,97312.71
2018-03-27T23:34:18.576Z,97314.17
2018-03-27T23:36:47.612Z,97303.34
2018-03-27T23:39:16.534Z,97304.03
2018-03-27T23:41:45.190Z,97310.99
2018-03-27T23:44:14.497Z,97300.73
2018-03-27T23:46:43.110Z,97314.28
2018-03-27T23:49:12.341Z,97313.78
2018-03-27T23:51:41.797Z,97315.39
2018-03-27T23:54:13.988Z,97322.28
2018-03-27T23:56:44.688Z,97311.42
2018-03-27T23:59:13.530Z,97305.17
